AXM405 VVTS-WMKP
Flight info
| Callsign | AXM405 |
|---|---|
| Flight time | 1h 19m |
| Altitude | 34000 |
| Route | ANHOA L637 BITOD/N0447F340 M765 VKB W546 BETNU |
| Aircraft | A320/M-SDE3FGHIRWY/LB1 |
Departure
| Time | 2026-05-08 13:44 |
|---|---|
| Airport | Tan Son Nhat International Airport (VVTS) |
Arrival
| Time | 2026-05-08 15:03 |
|---|---|
| Airport | Penang International Airport (WMKP) |
| Time | Latitude | Longitude | Altitude | Speed | Heading |
|---|---|---|---|---|---|
| 2026-05-08 13:26 | 10.81703 | 106.66248 | 39 ft | 0 kts | 159° |
| 2026-05-08 13:35 | 10.81714 | 106.66244 | 39 ft | 4 kts | 159° |
| 2026-05-08 13:36 | 10.81739 | 106.66234 | 38 ft | 4 kts | 159° |
| 2026-05-08 13:36 | 10.81763 | 106.66224 | 38 ft | 3 kts | 159° |
| 2026-05-08 13:36 | 10.81785 | 106.66212 | 39 ft | 4 kts | 121° |
| 2026-05-08 13:36 | 10.81790 | 106.66188 | 38 ft | 4 kts | 79° |
| 2026-05-08 13:37 | 10.81783 | 106.66164 | 38 ft | 2 kts | 69° |
| 2026-05-08 13:37 | 10.81782 | 106.66162 | 39 ft | 0 kts | 69° |
| 2026-05-08 13:39 | 10.81783 | 106.66163 | 39 ft | 1 kts | 69° |
| 2026-05-08 13:39 | 10.81789 | 106.66181 | 38 ft | 5 kts | 69° |
| 2026-05-08 13:39 | 10.81806 | 106.66226 | 39 ft | 9 kts | 69° |
| 2026-05-08 13:40 | 10.81833 | 106.66296 | 39 ft | 13 kts | 69° |
| 2026-05-08 13:40 | 10.81869 | 106.66391 | 38 ft | 16 kts | 69° |
| 2026-05-08 13:40 | 10.81913 | 106.66509 | 39 ft | 19 kts | 69° |
| 2026-05-08 13:40 | 10.81963 | 106.66641 | 39 ft | 21 kts | 69° |
| 2026-05-08 13:41 | 10.82012 | 106.66769 | 39 ft | 17 kts | 68° |
| 2026-05-08 13:41 | 10.82056 | 106.66876 | 37 ft | 16 kts | 56° |
| 2026-05-08 13:41 | 10.82138 | 106.66950 | 39 ft | 14 kts | 39° |
| 2026-05-08 13:41 | 10.82219 | 106.67014 | 39 ft | 15 kts | 31° |
| 2026-05-08 13:42 | 10.82301 | 106.66991 | 38 ft | 11 kts | 337° |
| 2026-05-08 13:42 | 10.82357 | 106.66950 | 38 ft | 9 kts | 324° |
| 2026-05-08 13:42 | 10.82357 | 106.66915 | 38 ft | 2 kts | 248° |
| 2026-05-08 13:42 | 10.82354 | 106.66907 | 38 ft | 1 kts | 248° |
| 2026-05-08 13:43 | 10.82350 | 106.66896 | 38 ft | 9 kts | 249° |
| 2026-05-08 13:43 | 10.82248 | 106.66628 | 35 ft | 78 kts | 249° |
| 2026-05-08 13:43 | 10.82084 | 106.66193 | 39 ft | 119 kts | 248° |
| 2026-05-08 13:43 | 10.81592 | 106.64835 | 112 ft | 177 kts | 249° |
| 2026-05-08 13:44 | 10.81208 | 106.63664 | 829 ft | 170 kts | 249° |
| 2026-05-08 13:44 | 10.80853 | 106.62530 | 1464 ft | 168 kts | 244° |
| 2026-05-08 13:44 | 10.80400 | 106.61370 | 1765 ft | 187 kts | 242° |
| 2026-05-08 13:44 | 10.80053 | 106.60533 | 1923 ft | 201 kts | 243° |
| 2026-05-08 13:45 | 10.79482 | 106.59151 | 2127 ft | 223 kts | 244° |
| 2026-05-08 13:45 | 10.78857 | 106.57603 | 2335 ft | 249 kts | 244° |
| 2026-05-08 13:45 | 10.78180 | 106.55893 | 2662 ft | 272 kts | 246° |
| 2026-05-08 13:45 | 10.77478 | 106.54077 | 3344 ft | 278 kts | 248° |
| 2026-05-08 13:46 | 10.76775 | 106.52233 | 4127 ft | 281 kts | 249° |
| 2026-05-08 13:46 | 10.76067 | 106.50365 | 4888 ft | 285 kts | 250° |
| 2026-05-08 13:46 | 10.75348 | 106.48473 | 5627 ft | 289 kts | 250° |
| 2026-05-08 13:46 | 10.74627 | 106.46576 | 6317 ft | 294 kts | 250° |
| 2026-05-08 13:47 | 10.73887 | 106.44624 | 7008 ft | 298 kts | 250° |
| 2026-05-08 13:47 | 10.73140 | 106.42650 | 7724 ft | 301 kts | 249° |
| 2026-05-08 13:47 | 10.72383 | 106.40651 | 8437 ft | 304 kts | 249° |
| 2026-05-08 13:47 | 10.71621 | 106.38638 | 9163 ft | 306 kts | 248° |
| 2026-05-08 13:48 | 10.70850 | 106.36607 | 9873 ft | 309 kts | 248° |
| 2026-05-08 13:48 | 10.70062 | 106.34541 | 10287 ft | 323 kts | 248° |
| 2026-05-08 13:48 | 10.69173 | 106.32350 | 10412 ft | 345 kts | 241° |
| 2026-05-08 13:48 | 10.67715 | 106.30345 | 10531 ft | 363 kts | 222° |
| 2026-05-08 13:49 | 10.65657 | 106.28762 | 10699 ft | 378 kts | 212° |
| 2026-05-08 13:49 | 10.63452 | 106.27256 | 11142 ft | 385 kts | 212° |
| 2026-05-08 13:49 | 10.61220 | 106.25736 | 11685 ft | 388 kts | 212° |
| 2026-05-08 13:49 | 10.58966 | 106.24200 | 12243 ft | 391 kts | 212° |
| 2026-05-08 13:50 | 10.56728 | 106.22670 | 12783 ft | 394 kts | 212° |
| 2026-05-08 13:50 | 10.54448 | 106.21104 | 13330 ft | 397 kts | 212° |
| 2026-05-08 13:50 | 10.52120 | 106.19498 | 13848 ft | 400 kts | 212° |
| 2026-05-08 13:50 | 10.49840 | 106.17925 | 14304 ft | 403 kts | 212° |
| 2026-05-08 13:51 | 10.47516 | 106.16320 | 14771 ft | 405 kts | 212° |
| 2026-05-08 13:51 | 10.45169 | 106.14704 | 15239 ft | 407 kts | 212° |
| 2026-05-08 13:51 | 10.42811 | 106.13085 | 15693 ft | 410 kts | 212° |
| 2026-05-08 13:51 | 10.40429 | 106.11491 | 16134 ft | 411 kts | 207° |
| 2026-05-08 13:52 | 10.37795 | 106.10386 | 16544 ft | 411 kts | 197° |
| 2026-05-08 13:52 | 10.35072 | 106.09476 | 16972 ft | 413 kts | 196° |
| 2026-05-08 13:52 | 10.32332 | 106.08576 | 17398 ft | 415 kts | 196° |
| 2026-05-08 13:52 | 10.29571 | 106.07673 | 17822 ft | 418 kts | 196° |
| 2026-05-08 13:53 | 10.26800 | 106.06765 | 18231 ft | 420 kts | 196° |
| 2026-05-08 13:53 | 10.24012 | 106.05847 | 18578 ft | 422 kts | 196° |
| 2026-05-08 13:53 | 10.22407 | 106.05314 | 18778 ft | 423 kts | 196° |
| 2026-05-08 13:53 | 10.19629 | 106.04388 | 19108 ft | 426 kts | 196° |
| 2026-05-08 13:54 | 10.16809 | 106.03452 | 19447 ft | 428 kts | 196° |
| 2026-05-08 13:54 | 10.13963 | 106.02508 | 19787 ft | 430 kts | 196° |
| 2026-05-08 13:54 | 10.11114 | 106.01564 | 20123 ft | 432 kts | 196° |
| 2026-05-08 13:54 | 10.08248 | 106.00615 | 20453 ft | 434 kts | 196° |
| 2026-05-08 13:55 | 10.05360 | 105.99658 | 20779 ft | 436 kts | 196° |
| 2026-05-08 13:55 | 10.02468 | 105.98701 | 21099 ft | 439 kts | 196° |
| 2026-05-08 13:55 | 9.96629 | 105.96769 | 21720 ft | 443 kts | 196° |
| 2026-05-08 13:56 | 9.93693 | 105.95797 | 22031 ft | 445 kts | 196° |
| 2026-05-08 13:56 | 9.90740 | 105.94818 | 22334 ft | 447 kts | 196° |
| 2026-05-08 13:56 | 9.87772 | 105.93834 | 22623 ft | 449 kts | 196° |
| 2026-05-08 13:56 | 9.84795 | 105.92849 | 22907 ft | 451 kts | 196° |
| 2026-05-08 13:57 | 9.81800 | 105.91858 | 23190 ft | 453 kts | 196° |
| 2026-05-08 13:57 | 9.78871 | 105.90765 | 23457 ft | 456 kts | 205° |
| 2026-05-08 13:57 | 9.76160 | 105.89049 | 23677 ft | 460 kts | 213° |
| 2026-05-08 13:57 | 9.73533 | 105.87197 | 23898 ft | 462 kts | 213° |
| 2026-05-08 13:58 | 9.70895 | 105.85320 | 24119 ft | 464 kts | 214° |
| 2026-05-08 13:58 | 9.68255 | 105.83435 | 24346 ft | 465 kts | 214° |
| 2026-05-08 13:58 | 9.65606 | 105.81544 | 24563 ft | 467 kts | 214° |
| 2026-05-08 13:58 | 9.62937 | 105.79649 | 24761 ft | 469 kts | 213° |
| 2026-05-08 13:59 | 9.60260 | 105.77758 | 24983 ft | 470 kts | 213° |
| 2026-05-08 13:59 | 9.57568 | 105.75859 | 25189 ft | 472 kts | 214° |
| 2026-05-08 13:59 | 9.54875 | 105.73954 | 25397 ft | 473 kts | 214° |
| 2026-05-08 13:59 | 9.52168 | 105.72037 | 25603 ft | 475 kts | 214° |
| 2026-05-08 14:00 | 9.49458 | 105.70116 | 25795 ft | 476 kts | 214° |
| 2026-05-08 14:00 | 9.46736 | 105.68188 | 25993 ft | 478 kts | 214° |
| 2026-05-08 14:00 | 9.44004 | 105.66254 | 26184 ft | 479 kts | 214° |
| 2026-05-08 14:00 | 9.41268 | 105.64316 | 26374 ft | 481 kts | 214° |
| 2026-05-08 14:01 | 9.38519 | 105.62373 | 26561 ft | 482 kts | 214° |
| 2026-05-08 14:01 | 9.35760 | 105.60426 | 26749 ft | 484 kts | 214° |
| 2026-05-08 14:01 | 9.32992 | 105.58474 | 26936 ft | 485 kts | 214° |
| 2026-05-08 14:01 | 9.30258 | 105.56543 | 27128 ft | 486 kts | 214° |
| 2026-05-08 14:02 | 9.27480 | 105.54578 | 27303 ft | 488 kts | 214° |
| 2026-05-08 14:02 | 9.24691 | 105.52605 | 27506 ft | 489 kts | 214° |
| 2026-05-08 14:02 | 9.21906 | 105.50636 | 27782 ft | 488 kts | 214° |
| 2026-05-08 14:02 | 9.19120 | 105.48668 | 28047 ft | 488 kts | 214° |
| 2026-05-08 14:03 | 9.16338 | 105.46705 | 28305 ft | 487 kts | 214° |
| 2026-05-08 14:03 | 9.13555 | 105.44740 | 28572 ft | 487 kts | 214° |
| 2026-05-08 14:03 | 9.10777 | 105.42781 | 28843 ft | 487 kts | 214° |
| 2026-05-08 14:03 | 9.08002 | 105.40830 | 29110 ft | 486 kts | 214° |
| 2026-05-08 14:04 | 9.05222 | 105.38873 | 29379 ft | 486 kts | 214° |
| 2026-05-08 14:04 | 9.02444 | 105.36918 | 29660 ft | 486 kts | 214° |
| 2026-05-08 14:04 | 8.99670 | 105.34963 | 29944 ft | 485 kts | 214° |
| 2026-05-08 14:04 | 8.96939 | 105.33038 | 30180 ft | 485 kts | 214° |
| 2026-05-08 14:05 | 8.94172 | 105.31087 | 30423 ft | 484 kts | 214° |
| 2026-05-08 14:05 | 8.91412 | 105.29142 | 30667 ft | 483 kts | 214° |
| 2026-05-08 14:05 | 8.88652 | 105.27196 | 30916 ft | 483 kts | 214° |
| 2026-05-08 14:05 | 8.85891 | 105.25248 | 31159 ft | 482 kts | 214° |
| 2026-05-08 14:06 | 8.83142 | 105.23310 | 31407 ft | 482 kts | 214° |
| 2026-05-08 14:06 | 8.80393 | 105.21373 | 31682 ft | 480 kts | 214° |
| 2026-05-08 14:06 | 8.77653 | 105.19448 | 31962 ft | 479 kts | 214° |
| 2026-05-08 14:06 | 8.74915 | 105.17528 | 32250 ft | 478 kts | 214° |
| 2026-05-08 14:07 | 8.72188 | 105.15613 | 32543 ft | 476 kts | 214° |
| 2026-05-08 14:07 | 8.69507 | 105.13726 | 32825 ft | 474 kts | 214° |
| 2026-05-08 14:07 | 8.66807 | 105.11822 | 33135 ft | 473 kts | 214° |
| 2026-05-08 14:07 | 8.64107 | 105.09918 | 33440 ft | 471 kts | 214° |
| 2026-05-08 14:08 | 8.61421 | 105.08029 | 33757 ft | 469 kts | 214° |
| 2026-05-08 14:08 | 8.58742 | 105.06150 | 33871 ft | 469 kts | 214° |
| 2026-05-08 14:08 | 8.56056 | 105.04265 | 33899 ft | 470 kts | 214° |
| 2026-05-08 14:09 | 8.50690 | 105.00489 | 33892 ft | 469 kts | 214° |
| 2026-05-08 14:09 | 8.45348 | 104.96715 | 33894 ft | 469 kts | 214° |
| 2026-05-08 14:10 | 8.40017 | 104.92909 | 33897 ft | 469 kts | 214° |
| 2026-05-08 14:10 | 8.34723 | 104.89121 | 33898 ft | 470 kts | 214° |
| 2026-05-08 14:11 | 8.29368 | 104.85324 | 33894 ft | 470 kts | 213° |
| 2026-05-08 14:11 | 8.24010 | 104.81532 | 33892 ft | 470 kts | 213° |
| 2026-05-08 14:12 | 8.18650 | 104.77731 | 33897 ft | 471 kts | 214° |
| 2026-05-08 14:12 | 8.13296 | 104.73917 | 33895 ft | 471 kts | 213° |
| 2026-05-08 14:13 | 8.07932 | 104.70103 | 33897 ft | 472 kts | 214° |
| 2026-05-08 14:13 | 8.02562 | 104.66294 | 33892 ft | 472 kts | 213° |
| 2026-05-08 14:14 | 7.97184 | 104.62473 | 33883 ft | 472 kts | 214° |
| 2026-05-08 14:14 | 7.91802 | 104.58653 | 33885 ft | 473 kts | 214° |
| 2026-05-08 14:15 | 7.86417 | 104.54837 | 33899 ft | 473 kts | 214° |
| 2026-05-08 14:15 | 7.81023 | 104.51012 | 33888 ft | 474 kts | 214° |
| 2026-05-08 14:16 | 7.75622 | 104.47191 | 33889 ft | 475 kts | 214° |
| 2026-05-08 14:16 | 7.70211 | 104.43365 | 33903 ft | 475 kts | 214° |
| 2026-05-08 14:17 | 7.64837 | 104.39551 | 33905 ft | 475 kts | 214° |
| 2026-05-08 14:17 | 7.59395 | 104.35690 | 33905 ft | 475 kts | 214° |
| 2026-05-08 14:18 | 7.54016 | 104.31887 | 33914 ft | 475 kts | 214° |
| 2026-05-08 14:18 | 7.48608 | 104.28064 | 33916 ft | 475 kts | 214° |
| 2026-05-08 14:19 | 7.43205 | 104.24241 | 33919 ft | 474 kts | 214° |
| 2026-05-08 14:19 | 7.37802 | 104.20426 | 33919 ft | 474 kts | 214° |
| 2026-05-08 14:20 | 7.32410 | 104.16611 | 33918 ft | 473 kts | 214° |
| 2026-05-08 14:20 | 7.27126 | 104.12654 | 33920 ft | 474 kts | 222° |
| 2026-05-08 14:21 | 7.23037 | 104.07483 | 33920 ft | 474 kts | 239° |
| 2026-05-08 14:21 | 7.19645 | 104.01781 | 33917 ft | 474 kts | 238° |
| 2026-05-08 14:22 | 7.16239 | 103.96093 | 33911 ft | 474 kts | 238° |
| 2026-05-08 14:22 | 7.12822 | 103.90405 | 33904 ft | 475 kts | 238° |
| 2026-05-08 14:23 | 7.09404 | 103.84719 | 33899 ft | 475 kts | 238° |
| 2026-05-08 14:23 | 7.05980 | 103.79024 | 33904 ft | 475 kts | 238° |
| 2026-05-08 14:24 | 7.02560 | 103.73324 | 33906 ft | 476 kts | 238° |
| 2026-05-08 14:24 | 6.99141 | 103.67622 | 33904 ft | 476 kts | 238° |
| 2026-05-08 14:25 | 6.95715 | 103.61915 | 33896 ft | 477 kts | 238° |
| 2026-05-08 14:25 | 6.92281 | 103.56195 | 33900 ft | 477 kts | 238° |
| 2026-05-08 14:26 | 6.88870 | 103.50462 | 33899 ft | 478 kts | 238° |
| 2026-05-08 14:26 | 6.85468 | 103.44713 | 33909 ft | 478 kts | 238° |
| 2026-05-08 14:27 | 6.82064 | 103.38960 | 33898 ft | 478 kts | 238° |
| 2026-05-08 14:27 | 6.78656 | 103.33206 | 33901 ft | 479 kts | 238° |
| 2026-05-08 14:28 | 6.75257 | 103.27481 | 33901 ft | 479 kts | 238° |
| 2026-05-08 14:28 | 6.71838 | 103.21722 | 33898 ft | 480 kts | 238° |
| 2026-05-08 14:29 | 6.68606 | 103.16292 | 33907 ft | 480 kts | 238° |
| 2026-05-08 14:29 | 6.66041 | 103.11991 | 33907 ft | 480 kts | 238° |
| 2026-05-08 14:30 | 6.62055 | 103.05294 | 33907 ft | 480 kts | 238° |
| 2026-05-08 14:30 | 6.59347 | 103.00733 | 33906 ft | 480 kts | 238° |
| 2026-05-08 14:31 | 6.56503 | 102.95947 | 33905 ft | 480 kts | 238° |
| 2026-05-08 14:31 | 6.53215 | 102.90429 | 33909 ft | 481 kts | 238° |
| 2026-05-08 14:32 | 6.48365 | 102.82294 | 33909 ft | 481 kts | 238° |
| 2026-05-08 14:32 | 6.44860 | 102.76559 | 33903 ft | 481 kts | 237° |
| 2026-05-08 14:33 | 6.41256 | 102.70894 | 33905 ft | 481 kts | 237° |
| 2026-05-08 14:33 | 6.37642 | 102.65231 | 33907 ft | 481 kts | 237° |
| 2026-05-08 14:34 | 6.34080 | 102.59581 | 33908 ft | 481 kts | 237° |
| 2026-05-08 14:34 | 6.30505 | 102.53892 | 33901 ft | 481 kts | 237° |
| 2026-05-08 14:35 | 6.26925 | 102.48202 | 33892 ft | 482 kts | 237° |
| 2026-05-08 14:35 | 6.23334 | 102.42510 | 33893 ft | 482 kts | 237° |
| 2026-05-08 14:36 | 6.19747 | 102.36823 | 33886 ft | 482 kts | 237° |
| 2026-05-08 14:36 | 6.15691 | 102.31487 | 33891 ft | 480 kts | 223° |
| 2026-05-08 14:37 | 6.10336 | 102.27524 | 33887 ft | 479 kts | 212° |
| 2026-05-08 14:37 | 6.05680 | 102.24506 | 33888 ft | 479 kts | 212° |
| 2026-05-08 14:38 | 5.99174 | 102.20263 | 33888 ft | 479 kts | 212° |
| 2026-05-08 14:38 | 5.93580 | 102.16615 | 33899 ft | 480 kts | 212° |
| 2026-05-08 14:39 | 5.87975 | 102.12972 | 33901 ft | 480 kts | 212° |
| 2026-05-08 14:39 | 5.82361 | 102.09337 | 33913 ft | 480 kts | 212° |
| 2026-05-08 14:40 | 5.76745 | 102.05694 | 33915 ft | 480 kts | 212° |
| 2026-05-08 14:40 | 5.71142 | 102.02051 | 33925 ft | 480 kts | 212° |
| 2026-05-08 14:41 | 5.68334 | 102.00222 | 33773 ft | 481 kts | 212° |
| 2026-05-08 14:41 | 5.65533 | 101.98393 | 33530 ft | 481 kts | 213° |
| 2026-05-08 14:41 | 5.62929 | 101.96293 | 33276 ft | 482 kts | 224° |
| 2026-05-08 14:41 | 5.60746 | 101.93743 | 33044 ft | 483 kts | 235° |
| 2026-05-08 14:42 | 5.59064 | 101.90816 | 32789 ft | 485 kts | 245° |
| 2026-05-08 14:42 | 5.57934 | 101.87627 | 32545 ft | 486 kts | 256° |
| 2026-05-08 14:42 | 5.57280 | 101.84301 | 32181 ft | 487 kts | 259° |
| 2026-05-08 14:42 | 5.56665 | 101.80926 | 31039 ft | 496 kts | 259° |
| 2026-05-08 14:43 | 5.56037 | 101.77499 | 30034 ft | 502 kts | 259° |
| 2026-05-08 14:43 | 5.55402 | 101.74028 | 28783 ft | 509 kts | 259° |
| 2026-05-08 14:43 | 5.54764 | 101.70547 | 28308 ft | 503 kts | 259° |
| 2026-05-08 14:43 | 5.54130 | 101.67087 | 28055 ft | 502 kts | 259° |
| 2026-05-08 14:44 | 5.53497 | 101.63650 | 27806 ft | 501 kts | 259° |
| 2026-05-08 14:44 | 5.52858 | 101.60211 | 27564 ft | 502 kts | 259° |
| 2026-05-08 14:44 | 5.52215 | 101.56765 | 27320 ft | 502 kts | 259° |
| 2026-05-08 14:44 | 5.51572 | 101.53323 | 27082 ft | 503 kts | 259° |
| 2026-05-08 14:45 | 5.50929 | 101.49867 | 26843 ft | 503 kts | 259° |
| 2026-05-08 14:45 | 5.50290 | 101.46409 | 26605 ft | 504 kts | 259° |
| 2026-05-08 14:45 | 5.49663 | 101.42993 | 26324 ft | 503 kts | 259° |
| 2026-05-08 14:45 | 5.49030 | 101.39554 | 25405 ft | 502 kts | 259° |
| 2026-05-08 14:46 | 5.48392 | 101.36099 | 24585 ft | 500 kts | 259° |
| 2026-05-08 14:46 | 5.47760 | 101.32678 | 23894 ft | 494 kts | 259° |
| 2026-05-08 14:46 | 5.47137 | 101.29303 | 23142 ft | 490 kts | 259° |
| 2026-05-08 14:46 | 5.46521 | 101.25960 | 22396 ft | 485 kts | 259° |
| 2026-05-08 14:47 | 5.45908 | 101.22640 | 21709 ft | 479 kts | 259° |
| 2026-05-08 14:47 | 5.45301 | 101.19365 | 21053 ft | 474 kts | 259° |
| 2026-05-08 14:47 | 5.44699 | 101.16130 | 20415 ft | 469 kts | 259° |
| 2026-05-08 14:47 | 5.44102 | 101.12923 | 19797 ft | 465 kts | 259° |
| 2026-05-08 14:48 | 5.43513 | 101.09753 | 19198 ft | 460 kts | 259° |
| 2026-05-08 14:48 | 5.42932 | 101.06613 | 18805 ft | 457 kts | 259° |
| 2026-05-08 14:48 | 5.42358 | 101.03515 | 18590 ft | 457 kts | 259° |
| 2026-05-08 14:48 | 5.41771 | 101.00344 | 18364 ft | 456 kts | 259° |
| 2026-05-08 14:49 | 5.41193 | 100.97220 | 18132 ft | 454 kts | 259° |
| 2026-05-08 14:49 | 5.40618 | 100.94118 | 17872 ft | 452 kts | 259° |
| 2026-05-08 14:49 | 5.40041 | 100.91022 | 17616 ft | 450 kts | 259° |
| 2026-05-08 14:49 | 5.39472 | 100.87981 | 17365 ft | 448 kts | 259° |
| 2026-05-08 14:50 | 5.38893 | 100.84881 | 17109 ft | 445 kts | 259° |
| 2026-05-08 14:50 | 5.38331 | 100.81870 | 16865 ft | 443 kts | 259° |
| 2026-05-08 14:50 | 5.37767 | 100.78844 | 16615 ft | 441 kts | 259° |
| 2026-05-08 14:50 | 5.37230 | 100.75824 | 16372 ft | 439 kts | 261° |
| 2026-05-08 14:51 | 5.36791 | 100.72791 | 16129 ft | 437 kts | 262° |
| 2026-05-08 14:51 | 5.36433 | 100.69778 | 15821 ft | 433 kts | 263° |
| 2026-05-08 14:51 | 5.36113 | 100.66767 | 15127 ft | 432 kts | 264° |
| 2026-05-08 14:51 | 5.35802 | 100.63777 | 14462 ft | 429 kts | 263° |
| 2026-05-08 14:52 | 5.35478 | 100.60802 | 13805 ft | 427 kts | 263° |
| 2026-05-08 14:52 | 5.34796 | 100.55044 | 12519 ft | 419 kts | 262° |
| 2026-05-08 14:52 | 5.34440 | 100.52161 | 11882 ft | 414 kts | 262° |
| 2026-05-08 14:53 | 5.34092 | 100.49341 | 11275 ft | 410 kts | 262° |
| 2026-05-08 14:53 | 5.33545 | 100.46582 | 11012 ft | 395 kts | 251° |
| 2026-05-08 14:53 | 5.32474 | 100.44115 | 10880 ft | 377 kts | 239° |
| 2026-05-08 14:53 | 5.30994 | 100.42039 | 10766 ft | 353 kts | 227° |
| 2026-05-08 14:54 | 5.29276 | 100.40420 | 10645 ft | 326 kts | 219° |
| 2026-05-08 14:54 | 5.27580 | 100.39002 | 10490 ft | 312 kts | 219° |
| 2026-05-08 14:54 | 5.25901 | 100.37595 | 9952 ft | 317 kts | 219° |
| 2026-05-08 14:54 | 5.24190 | 100.36163 | 9338 ft | 323 kts | 219° |
| 2026-05-08 14:55 | 5.22450 | 100.34708 | 8715 ft | 328 kts | 219° |
| 2026-05-08 14:55 | 5.20686 | 100.33232 | 8101 ft | 332 kts | 219° |
| 2026-05-08 14:55 | 5.18909 | 100.31742 | 7496 ft | 333 kts | 219° |
| 2026-05-08 14:55 | 5.17159 | 100.30272 | 6905 ft | 323 kts | 219° |
| 2026-05-08 14:56 | 5.15465 | 100.28849 | 6329 ft | 313 kts | 219° |
| 2026-05-08 14:56 | 5.13833 | 100.27481 | 6028 ft | 295 kts | 219° |
| 2026-05-08 14:56 | 5.12289 | 100.26188 | 5912 ft | 284 kts | 219° |
| 2026-05-08 14:56 | 5.10784 | 100.24929 | 5782 ft | 281 kts | 219° |
| 2026-05-08 14:57 | 5.09286 | 100.23677 | 5671 ft | 279 kts | 219° |
| 2026-05-08 14:57 | 5.07989 | 100.22265 | 5286 ft | 282 kts | 240° |
| 2026-05-08 14:57 | 5.07400 | 100.20384 | 4875 ft | 280 kts | 266° |
| 2026-05-08 14:57 | 5.07671 | 100.18463 | 4435 ft | 279 kts | 292° |
| 2026-05-08 14:58 | 5.08705 | 100.16870 | 4225 ft | 269 kts | 316° |
| 2026-05-08 14:58 | 5.10210 | 100.15848 | 4076 ft | 257 kts | 333° |
| 2026-05-08 14:58 | 5.11747 | 100.15046 | 3930 ft | 247 kts | 333° |
| 2026-05-08 14:58 | 5.13289 | 100.14376 | 3722 ft | 240 kts | 349° |
| 2026-05-08 14:59 | 5.14926 | 100.14520 | 3414 ft | 238 kts | 24° |
| 2026-05-08 14:59 | 5.17466 | 100.16578 | 2833 ft | 235 kts | 43° |
| 2026-05-08 14:59 | 5.18674 | 100.17685 | 2537 ft | 235 kts | 43° |
| 2026-05-08 15:00 | 5.19886 | 100.18785 | 2242 ft | 235 kts | 43° |
| 2026-05-08 15:00 | 5.21089 | 100.19873 | 1933 ft | 229 kts | 43° |
| 2026-05-08 15:00 | 5.22248 | 100.20922 | 1655 ft | 221 kts | 44° |
| 2026-05-08 15:00 | 5.23351 | 100.21919 | 1380 ft | 205 kts | 43° |
| 2026-05-08 15:01 | 5.24358 | 100.22830 | 1136 ft | 184 kts | 44° |
| 2026-05-08 15:01 | 5.25187 | 100.23580 | 931 ft | 165 kts | 44° |
| 2026-05-08 15:01 | 5.26004 | 100.24320 | 729 ft | 154 kts | 44° |
| 2026-05-08 15:01 | 5.26781 | 100.25024 | 540 ft | 150 kts | 44° |
| 2026-05-08 15:02 | 5.27549 | 100.25720 | 366 ft | 148 kts | 45° |
| 2026-05-08 15:02 | 5.28313 | 100.26406 | 137 ft | 146 kts | 45° |
| 2026-05-08 15:02 | 5.29054 | 100.27083 | 29 ft | 136 kts | 43° |
| 2026-05-08 15:02 | 5.29643 | 100.27624 | 24 ft | 90 kts | 41° |
| 2026-05-08 15:03 | 5.29975 | 100.27924 | 25 ft | 43 kts | 41° |
| 2026-05-08 15:03 | 5.30132 | 100.28048 | 27 ft | 13 kts | 4° |
| 2026-05-08 15:03 | 5.30165 | 100.28019 | 26 ft | 6 kts | 308° |
| 2026-05-08 15:03 | 5.30192 | 100.27985 | 24 ft | 6 kts | 309° |
| 2026-05-08 15:04 | 5.30223 | 100.27952 | 23 ft | 7 kts | 314° |
| 2026-05-08 15:04 | 5.30229 | 100.27918 | 23 ft | 5 kts | 244° |
| 2026-05-08 15:04 | 5.30209 | 100.27883 | 23 ft | 8 kts | 227° |
| 2026-05-08 15:04 | 5.30153 | 100.27830 | 23 ft | 14 kts | 224° |
| 2026-05-08 15:05 | 5.30069 | 100.27748 | 23 ft | 19 kts | 224° |
| 2026-05-08 15:05 | 5.29966 | 100.27652 | 23 ft | 22 kts | 222° |
| 2026-05-08 15:05 | 5.29846 | 100.27543 | 23 ft | 24 kts | 222° |
| 2026-05-08 15:05 | 5.29716 | 100.27423 | 23 ft | 26 kts | 222° |
| 2026-05-08 15:06 | 5.29579 | 100.27302 | 23 ft | 26 kts | 223° |
| 2026-05-08 15:06 | 5.29461 | 100.27193 | 23 ft | 21 kts | 222° |
| 2026-05-08 15:06 | 5.29351 | 100.27094 | 23 ft | 22 kts | 221° |
| 2026-05-08 15:06 | 5.29334 | 100.27039 | 23 ft | 4 kts | 322° |
| 2026-05-08 15:07 | 5.29366 | 100.27014 | 23 ft | 7 kts | 321° |
| 2026-05-08 15:07 | 5.29395 | 100.26980 | 23 ft | 6 kts | 309° |
| 2026-05-08 15:07 | 5.29406 | 100.26927 | 23 ft | 10 kts | 243° |
| 2026-05-08 15:07 | 5.29361 | 100.26882 | 23 ft | 8 kts | 220° |
| 2026-05-08 15:08 | 5.29321 | 100.26847 | 23 ft | 7 kts | 222° |
| 2026-05-08 15:08 | 5.29294 | 100.26823 | 23 ft | 10 kts | 222° |
| 2026-05-08 15:08 | 5.29212 | 100.26750 | 23 ft | 11 kts | 221° |
| 2026-05-08 15:08 | 5.29174 | 100.26708 | 23 ft | 5 kts | 264° |
| 2026-05-08 15:09 | 5.29193 | 100.26680 | 25 ft | 4 kts | 313° |
| 2026-05-08 15:09 | 5.29212 | 100.26660 | 23 ft | 3 kts | 311° |
| 2026-05-08 15:09 | 5.29219 | 100.26651 | 23 ft | 1 kts | 311° |
| 2026-05-08 15:09 | 5.29221 | 100.26649 | 23 ft | 1 kts | 311° |
| 2026-05-08 15:10 | 5.29222 | 100.26647 | 23 ft | 0 kts | 311° |